Time;durP1;ratioP1;P1;durP2;ratioP2;P2;SDS_P1;SDS_P2;PMS_P1;PMS_P2;Temp;Humidity;BMP_temperature;BMP_pressure;BME280_temperature;BME280_humidity;BME280_pressure;Samples;Min_cycle;Max_cycle;Signal;HPM_P1;HPM_P2
2023/05/21 00:00:22;;;;;;;18.60;13.80;;;19.30;99.90;;;;;;5129988;27;20283;-80
2023/05/21 00:02:48;;;;;;;15.30;12.93;;;19.20;99.90;;;;;;5129946;27;20187;-84
2023/05/21 00:05:15;;;;;;;16.70;13.93;;;19.20;99.90;;;;;;5130016;27;20473;-84
2023/05/21 00:07:41;;;;;;;16.97;14.03;;;19.20;99.90;;;;;;5130358;27;20520;-85
2023/05/21 00:10:07;;;;;;;14.83;13.07;;;19.20;99.90;;;;;;5129936;27;20451;-81
2023/05/21 00:12:33;;;;;;;16.50;14.17;;;19.10;99.90;;;;;;5114678;28;20498;-85
2023/05/21 00:15:00;;;;;;;17.20;12.87;;;19.20;99.90;;;;;;5129803;28;20445;-80
2023/05/21 00:17:26;;;;;;;17.67;13.97;;;19.10;99.90;;;;;;5130235;28;20638;-81
2023/05/21 00:19:52;;;;;;;17.03;13.43;;;19.10;99.90;;;;;;5113910;28;20437;-83
2023/05/21 00:22:18;;;;;;;17.50;13.97;;;19.00;99.90;;;;;;5114134;28;20430;-85
2023/05/21 00:24:44;;;;;;;17.33;13.90;;;19.00;99.90;;;;;;5129929;28;20177;-80
2023/05/21 00:27:11;;;;;;;16.20;13.33;;;19.00;99.90;;;;;;5114608;28;20441;-80
2023/05/21 00:29:37;;;;;;;15.03;13.17;;;19.00;99.90;;;;;;5133822;27;20964;-84
2023/05/21 00:32:03;;;;;;;18.13;13.73;;;19.00;99.90;;;;;;5134254;27;20415;-80
2023/05/21 00:34:29;;;;;;;17.83;15.70;;;19.00;99.90;;;;;;5134022;27;20178;-84
2023/05/21 00:36:56;;;;;;;21.53;16.20;;;18.90;99.90;;;;;;5134029;27;21059;-83
2023/05/21 00:39:22;;;;;;;17.13;14.23;;;18.90;99.90;;;;;;5118202;28;20629;-84
2023/05/21 00:41:48;;;;;;;16.00;13.37;;;18.90;99.90;;;;;;5133911;27;20537;-80
2023/05/21 00:44:15;;;;;;;18.70;12.83;;;18.90;99.90;;;;;;5118210;28;20524;-81
2023/05/21 00:46:43;;;;;;;17.77;14.10;;;18.80;99.90;;;;;;5133792;27;20241;-85
2023/05/21 00:49:09;;;;;;;19.50;14.43;;;18.80;99.90;;;;;;5133636;27;20508;-84
2023/05/21 00:51:35;;;;;;;18.70;14.30;;;18.70;99.90;;;;;;5118119;28;20445;-80
2023/05/21 00:54:02;;;;;;;18.33;14.30;;;18.80;99.90;;;;;;5117857;28;20500;-83
2023/05/21 00:56:27;;;;;;;16.00;14.30;;;18.90;99.90;;;;;;5133564;27;20437;-80
2023/05/21 00:58:56;;;;;;;16.67;14.10;;;18.70;99.90;;;;;;5133663;27;20471;-82
2023/05/21 01:01:24;;;;;;;17.97;14.20;;;18.70;99.90;;;;;;5117752;28;20565;-81
2023/05/21 01:03:53;;;;;;;15.80;13.60;;;18.70;99.90;;;;;;5133398;27;20466;-80
2023/05/21 01:06:19;;;;;;;19.17;14.63;;;18.70;99.90;;;;;;5099268;28;20452;-80
2023/05/21 01:08:45;;;;;;;16.73;14.30;;;18.60;99.90;;;;;;5133369;27;20420;-84
2023/05/21 01:11:11;;;;;;;19.00;15.47;;;18.60;99.90;;;;;;5133294;27;20475;-80
2023/05/21 01:13:40;;;;;;;18.10;13.07;;;18.50;99.90;;;;;;5133242;27;20467;-84
2023/05/21 01:16:07;;;;;;;18.03;15.30;;;18.50;99.90;;;;;;5117059;28;20448;-80
2023/05/21 01:18:34;;;;;;;17.00;14.20;;;18.50;99.90;;;;;;5132974;27;20420;-80
2023/05/21 01:21:01;;;;;;;16.70;13.83;;;18.60;99.90;;;;;;5117187;28;20485;-84
2023/05/21 01:23:27;;;;;;;18.00;15.10;;;18.60;99.90;;;;;;5133084;27;20420;-80
2023/05/21 01:25:53;;;;;;;15.23;13.63;;;18.60;99.90;;;;;;5117170;28;20444;-80
2023/05/21 01:28:19;;;;;;;19.63;15.00;;;18.60;99.90;;;;;;5133077;27;20408;-84
2023/05/21 01:30:45;;;;;;;18.07;14.73;;;18.50;99.90;;;;;;5116988;28;20687;-80
2023/05/21 01:33:37;;;;;;;17.80;14.43;;;18.40;99.90;;;;;;5117019;28;20478;-84
2023/05/21 01:36:23;;;;;;;19.60;15.17;;;18.40;99.90;;;;;;5117038;28;20443;-84
2023/05/21 01:39:10;;;;;;;15.93;14.10;;;18.40;99.90;;;;;;5116457;28;20408;-80
2023/05/21 01:41:40;;;;;;;17.57;14.27;;;18.20;99.90;;;;;;5132882;27;20471;-80
2023/05/21 01:44:08;;;;;;;17.50;13.93;;;18.20;99.90;;;;;;5132770;27;20408;-80
2023/05/21 01:46:37;;;;;;;16.20;13.90;;;18.30;99.90;;;;;;5116970;28;20527;-84
2023/05/21 01:49:05;;;;;;;16.50;14.17;;;18.20;99.90;;;;;;5132680;27;20781;-84
2023/05/21 01:51:32;;;;;;;15.03;13.43;;;18.20;99.90;;;;;;5132524;27;20792;-80
2023/05/21 01:53:58;;;;;;;16.20;13.53;;;18.20;99.90;;;;;;5116599;28;20411;-84
2023/05/21 01:56:24;;;;;;;18.30;14.00;;;18.20;99.90;;;;;;5132409;27;20444;-80
2023/05/21 01:58:50;;;;;;;17.37;13.37;;;18.10;99.90;;;;;;5132432;27;20180;-84
2023/05/21 02:01:16;;;;;;;18.43;15.47;;;18.20;99.90;;;;;;5132347;27;20473;-79
2023/05/21 02:03:42;;;;;;;17.80;13.20;;;18.20;99.90;;;;;;5132366;27;20408;-83
2023/05/21 02:06:08;;;;;;;17.27;14.07;;;18.10;99.90;;;;;;5132205;27;20549;-85
2023/05/21 02:08:33;;;;;;;18.10;14.30;;;18.00;99.90;;;;;;5116351;28;20259;-80
2023/05/21 02:10:59;;;;;;;16.00;13.90;;;18.00;99.90;;;;;;5132124;27;20439;-84
2023/05/21 02:13:25;;;;;;;17.30;14.20;;;17.90;99.90;;;;;;5132237;27;20263;-82
2023/05/21 02:15:53;;;;;;;18.23;12.93;;;17.90;99.90;;;;;;5128299;27;20256;-80
2023/05/21 02:18:20;;;;;;;15.30;13.40;;;17.80;99.90;;;;;;5095883;28;20172;-80
2023/05/21 02:20:46;;;;;;;17.30;14.37;;;17.80;99.90;;;;;;5094164;28;20516;-84
2023/05/21 02:23:12;;;;;;;16.83;14.43;;;17.70;99.90;;;;;;5094483;28;20882;-83
2023/05/21 02:25:37;;;;;;;17.33;14.20;;;17.70;99.90;;;;;;5095498;28;20417;-80
2023/05/21 02:28:03;;;;;;;18.83;14.60;;;17.80;99.90;;;;;;5094344;28;20544;-84
2023/05/21 02:30:29;;;;;;;23.60;14.50;;;17.80;99.90;;;;;;5094134;28;20207;-84
2023/05/21 02:32:57;;;;;;;19.03;13.50;;;17.80;99.90;;;;;;5095255;28;20901;-79
2023/05/21 02:35:23;;;;;;;15.63;13.60;;;17.70;99.90;;;;;;5095534;28;20192;-80
2023/05/21 02:37:49;;;;;;;18.83;14.80;;;17.80;99.90;;;;;;5095915;28;20909;-82
2023/05/21 02:40:15;;;;;;;22.73;15.43;;;17.80;99.90;;;;;;5093974;28;20204;-84
2023/05/21 02:42:40;;;;;;;16.03;14.27;;;17.80;99.90;;;;;;5095836;28;20525;-84
2023/05/21 02:45:11;;;;;;;17.37;14.93;;;17.70;99.90;;;;;;5095274;28;20763;-84
2023/05/21 02:47:39;;;;;;;20.37;14.80;;;17.60;99.90;;;;;;5094259;28;20177;-84
2023/05/21 02:50:07;;;;;;;19.30;14.07;;;17.50;99.90;;;;;;5094511;28;20459;-84
2023/05/21 02:52:33;;;;;;;20.27;14.67;;;17.50;99.90;;;;;;5095398;28;20455;-80
2023/05/21 02:54:58;;;;;;;19.03;16.10;;;17.50;99.90;;;;;;5093668;28;20448;-84
2023/05/21 02:57:24;;;;;;;16.73;13.40;;;17.40;99.90;;;;;;5094011;28;20204;-80
2023/05/21 02:59:50;;;;;;;18.50;14.80;;;17.40;99.90;;;;;;5094996;28;20237;-84
2023/05/21 03:02:16;;;;;;;17.20;13.77;;;17.40;99.90;;;;;;5095275;28;20208;-83
2023/05/21 03:04:44;;;;;;;18.80;15.53;;;17.50;99.90;;;;;;5093545;28;20212;-84
2023/05/21 03:07:14;;;;;;;19.47;14.70;;;17.50;99.90;;;;;;5093921;28;20956;-80
2023/05/21 03:09:40;;;;;;;17.23;14.40;;;17.50;99.90;;;;;;5093514;28;20482;-80
2023/05/21 03:12:07;;;;;;;17.17;14.73;;;17.30;99.90;;;;;;5093407;28;20424;-79
2023/05/21 03:14:32;;;;;;;20.77;15.03;;;17.40;99.90;;;;;;5093348;28;20794;-80
2023/05/21 03:16:58;;;;;;;19.80;14.63;;;17.40;99.90;;;;;;5093293;28;20458;-85
2023/05/21 03:19:24;;;;;;;20.40;16.07;;;17.50;99.90;;;;;;5093415;28;20308;-81
2023/05/21 03:21:50;;;;;;;17.83;14.53;;;17.30;99.90;;;;;;5094773;28;20215;-80
2023/05/21 03:24:15;;;;;;;19.30;14.57;;;17.30;99.90;;;;;;5094591;28;20695;-80
2023/05/21 03:26:41;;;;;;;20.10;16.10;;;17.40;99.90;;;;;;5094732;28;20203;-85
2023/05/21 03:29:06;;;;;;;19.43;15.13;;;17.40;99.90;;;;;;5094414;28;20191;-80
2023/05/21 03:31:32;;;;;;;18.30;14.97;;;17.30;99.90;;;;;;5094740;28;20646;-80
2023/05/21 03:33:58;;;;;;;16.57;14.10;;;17.30;99.90;;;;;;5093116;28;20215;-79
2023/05/21 03:36:23;;;;;;;18.47;14.87;;;17.40;99.90;;;;;;5094514;28;20680;-85
2023/05/21 03:38:49;;;;;;;16.40;14.53;;;17.40;99.90;;;;;;5093007;28;20177;-81
2023/05/21 03:41:15;;;;;;;18.10;14.50;;;17.40;99.90;;;;;;5094097;28;20246;-81
2023/05/21 03:43:40;;;;;;;17.47;14.53;;;17.40;99.90;;;;;;5094228;28;20176;-84
2023/05/21 03:46:06;;;;;;;20.90;15.20;;;17.50;99.90;;;;;;5092889;28;20200;-84
2023/05/21 03:48:31;;;;;;;15.53;13.83;;;17.40;99.90;;;;;;5094225;28;20184;-81
2023/05/21 03:50:57;;;;;;;17.90;14.93;;;17.50;99.90;;;;;;5094079;28;20200;-85
2023/05/21 03:53:23;;;;;;;17.70;13.30;;;17.50;99.90;;;;;;5094214;28;20778;-82
2023/05/21 03:55:53;;;;;;;16.33;14.63;;;17.50;99.90;;;;;;5093779;28;20554;-80
2023/05/21 03:58:21;;;;;;;15.90;12.87;;;17.50;99.90;;;;;;5094146;28;20401;-80
2023/05/21 04:00:47;;;;;;;16.37;13.63;;;17.60;99.90;;;;;;5092611;28;20820;-84
2023/05/21 04:03:13;;;;;;;16.83;13.90;;;17.60;99.90;;;;;;5092730;28;20492;-83
2023/05/21 04:05:40;;;;;;;16.90;14.60;;;17.70;99.90;;;;;;5093851;28;20508;-80
2023/05/21 04:08:06;;;;;;;15.60;13.90;;;17.80;99.90;;;;;;5093853;28;20433;-80
2023/05/21 04:10:32;;;;;;;16.67;14.50;;;17.80;99.90;;;;;;5092507;28;20467;-84
2023/05/21 04:12:57;;;;;;;17.97;14.00;;;17.80;99.90;;;;;;5093918;28;20679;-80
2023/05/21 04:15:23;;;;;;;18.90;14.40;;;17.90;99.90;;;;;;5097472;28;20224;-84
2023/05/21 04:17:49;;;;;;;16.40;14.23;;;18.00;99.90;;;;;;5130184;28;20608;-84
2023/05/21 04:20:15;;;;;;;17.50;14.80;;;18.00;99.90;;;;;;5129787;28;20231;-84
2023/05/21 04:22:41;;;;;;;19.20;13.90;;;18.00;99.90;;;;;;5130150;28;20576;-80
2023/05/21 04:25:07;;;;;;;16.17;13.90;;;18.10;99.90;;;;;;5129863;28;20515;-83
2023/05/21 04:27:34;;;;;;;17.50;14.60;;;18.10;99.90;;;;;;5114572;28;20491;-84
2023/05/21 04:30:00;;;;;;;16.20;14.47;;;18.10;99.90;;;;;;5095726;28;20791;-80
2023/05/21 04:32:27;;;;;;;16.47;14.03;;;18.20;99.90;;;;;;5114474;28;20424;-80
2023/05/21 04:34:53;;;;;;;17.70;14.27;;;18.20;99.90;;;;;;5129753;28;20200;-84
2023/05/21 04:37:18;;;;;;;18.73;14.73;;;18.30;99.90;;;;;;5130048;28;20435;-80
2023/05/21 04:39:45;;;;;;;16.50;14.20;;;18.30;99.90;;;;;;5129821;28;20477;-84
2023/05/21 04:42:11;;;;;;;19.20;15.70;;;18.40;99.90;;;;;;5114250;28;20547;-80
2023/05/21 04:44:39;;;;;;;20.10;14.40;;;18.40;99.90;;;;;;5129826;28;20453;-80
2023/05/21 04:47:05;;;;;;;21.67;15.47;;;18.40;99.90;;;;;;5114244;28;20771;-85
2023/05/21 04:49:30;;;;;;;20.23;14.87;;;18.50;99.90;;;;;;5129679;28;20465;-80
2023/05/21 04:51:56;;;;;;;17.60;15.00;;;18.50;99.90;;;;;;5129653;28;20825;-85
2023/05/21 04:54:22;;;;;;;16.93;14.30;;;18.60;99.90;;;;;;5129600;28;20176;-80
2023/05/21 04:56:47;;;;;;;17.70;14.97;;;18.60;99.90;;;;;;5113961;28;20531;-85
2023/05/21 04:59:14;;;;;;;18.10;14.93;;;18.70;99.90;;;;;;5129633;28;20172;-80
2023/05/21 05:01:40;;;;;;;17.63;14.93;;;18.80;99.90;;;;;;5129556;28;20215;-85
2023/05/21 05:04:05;;;;;;;21.50;15.60;;;18.90;99.90;;;;;;5129550;28;20816;-84
2023/05/21 05:06:31;;;;;;;19.63;14.50;;;18.90;99.90;;;;;;5113560;28;20197;-80
2023/05/21 05:08:57;;;;;;;17.37;14.03;;;19.00;99.90;;;;;;5113672;28;20176;-83
2023/05/21 05:11:22;;;;;;;17.17;14.13;;;19.10;99.90;;;;;;5129497;28;20291;-85
2023/05/21 05:13:48;;;;;;;16.80;14.93;;;19.10;99.90;;;;;;5130005;27;20173;-80
2023/05/21 05:16:16;;;;;;;18.70;15.20;;;19.20;99.90;;;;;;5117254;28;20226;-85
2023/05/21 05:18:42;;;;;;;16.57;14.50;;;19.30;99.90;;;;;;5133333;27;20262;-84
2023/05/21 05:21:07;;;;;;;19.33;14.20;;;19.30;99.90;;;;;;5117167;28;20508;-85
2023/05/21 05:23:33;;;;;;;15.13;13.20;;;19.40;99.90;;;;;;5117260;28;20204;-81
2023/05/21 05:25:59;;;;;;;23.90;13.73;;;19.50;99.90;;;;;;5132891;27;20205;-80
2023/05/21 05:28:25;;;;;;;16.30;14.50;;;19.60;99.90;;;;;;5117166;28;20226;-80
2023/05/21 05:30:50;;;;;;;15.13;13.33;;;19.70;99.90;;;;;;5132923;27;20445;-85
2023/05/21 05:33:16;;;;;;;15.63;13.30;;;19.80;99.90;;;;;;5133006;27;20260;-80
2023/05/21 05:35:42;;;;;;;15.97;13.00;;;19.80;99.90;;;;;;5117022;28;20665;-84
2023/05/21 05:38:07;;;;;;;15.27;13.57;;;19.90;99.90;;;;;;5116912;28;20178;-83
2023/05/21 05:40:33;;;;;;;14.70;12.50;;;20.00;99.90;;;;;;5132698;27;20248;-80
2023/05/21 05:42:59;;;;;;;15.73;12.57;;;20.10;99.90;;;;;;5132628;27;20566;-80
2023/05/21 05:45:25;;;;;;;14.00;12.50;;;20.20;99.90;;;;;;5132540;27;20199;-84
2023/05/21 05:47:51;;;;;;;15.60;13.33;;;20.20;99.90;;;;;;5132583;27;20558;-80
2023/05/21 05:50:17;;;;;;;16.47;13.53;;;20.30;99.90;;;;;;5116703;28;20419;-80
2023/05/21 05:52:42;;;;;;;14.07;12.00;;;20.40;99.90;;;;;;5132968;27;20292;-85
2023/05/21 05:55:11;;;;;;;15.90;11.67;;;20.40;99.90;;;;;;5116590;28;20199;-85
2023/05/21 05:57:36;;;;;;;;;;;20.50;99.90;;;;;;5132596;27;20186;-81
2023/05/21 06:00:03;;;;;;;18.90;11.97;;;20.60;99.90;;;;;;5116638;28;20451;-80
2023/05/21 06:02:29;;;;;;;13.30;11.90;;;20.70;99.90;;;;;;5132294;27;20561;-84
2023/05/21 06:04:55;;;;;;;14.20;12.07;;;20.80;99.90;;;;;;5132248;27;20449;-85
2023/05/21 06:07:20;;;;;;;13.53;12.00;;;20.90;99.90;;;;;;5132469;27;20543;-80
2023/05/21 06:09:46;;;;;;;13.97;11.90;;;20.90;99.90;;;;;;5116348;28;20625;-85
2023/05/21 06:12:14;;;;;;;15.90;11.83;;;21.00;99.90;;;;;;5116750;28;20168;-80
2023/05/21 06:14:41;;;;;;;15.10;12.40;;;21.10;99.90;;;;;;5132159;27;20415;-80
2023/05/21 06:17:06;;;;;;;13.37;10.97;;;21.20;99.90;;;;;;5116418;28;20798;-80
2023/05/21 06:19:32;;;;;;;13.23;11.37;;;21.30;99.90;;;;;;5116093;28;20506;-85
2023/05/21 06:21:57;;;;;;;12.30;10.53;;;21.30;99.90;;;;;;5116319;28;20294;-80
2023/05/21 06:24:23;;;;;;;12.93;11.40;;;21.40;99.90;;;;;;5131965;27;20183;-84
2023/05/21 06:26:48;;;;;;;11.27;10.17;;;21.50;99.90;;;;;;5131914;27;20248;-80
2023/05/21 06:29:15;;;;;;;13.67;10.20;;;21.60;99.90;;;;;;5115954;28;20198;-83
2023/05/21 06:31:41;;;;;;;11.10;10.00;;;21.70;99.90;;;;;;5116138;28;20191;-85
2023/05/21 06:34:07;;;;;;;12.20;10.90;;;21.70;99.90;;;;;;5115891;28;20415;-85
2023/05/21 06:36:33;;;;;;;11.83;10.30;;;21.80;99.90;;;;;;5131830;27;20531;-80
2023/05/21 06:38:59;;;;;;;12.37;11.17;;;21.90;99.90;;;;;;5131726;27;20635;-85
2023/05/21 06:41:25;;;;;;;12.90;11.43;;;21.90;99.90;;;;;;5131475;27;20486;-83
2023/05/21 06:43:51;;;;;;;10.43;9.43;;;22.00;99.90;;;;;;5131589;27;20839;-82
2023/05/21 06:46:16;;;;;;;14.70;10.80;;;22.10;99.90;;;;;;5097446;28;20558;-81
2023/05/21 06:48:43;;;;;;;12.60;10.13;;;22.10;99.90;;;;;;5115619;28;20176;-83
2023/05/21 06:51:09;;;;;;;11.10;10.00;;;22.20;99.90;;;;;;5115541;28;20280;-84
2023/05/21 06:53:34;;;;;;;11.53;10.43;;;22.30;99.90;;;;;;5131714;27;20936;-81
2023/05/21 06:56:00;;;;;;;12.77;10.63;;;22.40;99.90;;;;;;5131166;27;20206;-85
2023/05/21 06:58:29;;;;;;;12.13;10.70;;;22.40;99.90;;;;;;5131307;27;20183;-85
2023/05/21 07:00:56;;;;;;;11.40;9.70;;;22.50;99.90;;;;;;5115209;28;20212;-81
2023/05/21 07:03:22;;;;;;;10.00;8.90;;;22.50;99.90;;;;;;5097100;28;20422;-85
2023/05/21 07:05:47;;;;;;;12.03;9.60;;;22.70;99.90;;;;;;5096854;28;20440;-80
2023/05/21 07:08:13;;;;;;;11.30;8.87;;;22.80;99.90;;;;;;5115292;28;20239;-84
2023/05/21 07:10:38;;;;;;;11.70;9.83;;;22.80;99.90;;;;;;5096834;28;20187;-84
2023/05/21 07:13:04;;;;;;;10.67;9.60;;;22.90;99.90;;;;;;5115264;28;20188;-83
2023/05/21 07:15:30;;;;;;;11.30;9.47;;;22.90;99.90;;;;;;5096387;28;20238;-80
2023/05/21 07:17:55;;;;;;;10.70;9.37;;;23.00;99.90;;;;;;5115065;28;20179;-85
2023/05/21 07:20:21;;;;;;;9.67;8.67;;;23.00;99.90;;;;;;5115010;28;20327;-81
2023/05/21 07:22:47;;;;;;;10.50;8.80;;;23.10;99.90;;;;;;5115360;28;20221;-84
2023/05/21 07:25:14;;;;;;;9.17;8.27;;;23.20;99.90;;;;;;5114710;28;20224;-86
2023/05/21 07:27:40;;;;;;;17.37;10.20;;;23.20;99.90;;;;;;5096793;28;20431;-85
2023/05/21 07:30:08;;;;;;;10.50;9.13;;;23.30;99.90;;;;;;5114688;28;20214;-85
2023/05/21 07:32:33;;;;;;;9.40;8.37;;;23.40;99.90;;;;;;5096441;28;20800;-86
2023/05/21 07:35:02;;;;;;;10.30;7.43;;;23.50;99.90;;;;;;5096403;28;20524;-81
2023/05/21 07:37:28;;;;;;;9.00;8.10;;;23.60;99.90;;;;;;5096105;28;20181;-80
2023/05/21 07:39:56;;;;;;;9.50;8.50;;;23.60;99.90;;;;;;5096463;28;20844;-81
2023/05/21 07:42:22;;;;;;;9.57;8.77;;;23.70;99.90;;;;;;5115079;28;20467;-81
2023/05/21 07:44:48;;;;;;;8.73;7.83;;;23.80;99.90;;;;;;5096287;28;20425;-81
2023/05/21 07:47:13;;;;;;;10.87;9.77;;;23.80;99.90;;;;;;5114900;28;20625;-85
2023/05/21 07:49:39;;;;;;;9.27;8.37;;;23.90;99.90;;;;;;5114575;28;20655;-81
2023/05/21 07:52:05;;;;;;;8.57;7.77;;;23.90;99.90;;;;;;5096353;28;20548;-85
2023/05/21 07:54:31;;;;;;;9.70;8.70;;;24.00;99.90;;;;;;5096188;28;20184;-86
2023/05/21 07:56:56;;;;;;;8.63;7.83;;;24.10;99.90;;;;;;5114639;28;21082;-85
2023/05/21 07:59:22;;;;;;;9.97;8.37;;;24.20;99.90;;;;;;5096182;28;20178;-85
2023/05/21 08:01:48;;;;;;;9.40;8.50;;;24.20;99.90;;;;;;5095753;28;20221;-81
2023/05/21 08:04:13;;;;;;;9.00;8.10;;;24.30;99.90;;;;;;5096038;28;20190;-85
2023/05/21 08:06:39;;;;;;;10.17;8.47;;;24.30;99.90;;;;;;5114504;28;20196;-80
2023/05/21 08:09:05;;;;;;;9.10;8.30;;;24.40;99.90;;;;;;5114330;28;20187;-81
2023/05/21 08:11:31;;;;;;;8.93;8.03;;;24.40;99.90;;;;;;5095994;28;20201;-85
2023/05/21 08:13:56;;;;;;;9.50;8.60;;;24.50;99.90;;;;;;5095947;28;20419;-80
2023/05/21 08:16:22;;;;;;;8.90;8.10;;;24.60;99.90;;;;;;5113997;28;20226;-85
2023/05/21 08:18:49;;;;;;;9.93;8.93;;;24.70;99.90;;;;;;5096097;28;20183;-81
2023/05/21 08:21:15;;;;;;;8.80;8.00;;;24.70;99.90;;;;;;5129930;28;21007;-85
2023/05/21 08:23:41;;;;;;;9.20;8.13;;;24.70;99.90;;;;;;5095852;28;20449;-81
2023/05/21 08:26:07;;;;;;;9.70;8.80;;;24.70;99.90;;;;;;5114108;28;20486;-81
2023/05/21 08:28:34;;;;;;;11.07;9.07;;;24.80;99.90;;;;;;5114065;28;20182;-80
2023/05/21 08:31:00;;;;;;;8.90;8.00;;;24.90;99.90;;;;;;5095582;28;20195;-85
2023/05/21 08:33:26;;;;;;;11.20;7.63;;;24.90;99.90;;;;;;5095790;28;20463;-82
2023/05/21 08:35:52;;;;;;;8.87;8.07;;;25.00;99.90;;;;;;5113913;28;20439;-81
2023/05/21 08:38:18;;;;;;;11.53;8.90;;;25.00;99.90;;;;;;5095720;28;20412;-80
2023/05/21 08:40:46;;;;;;;8.47;7.67;;;25.10;99.90;;;;;;5095591;28;20463;-84
2023/05/21 08:43:15;;;;;;;8.90;8.00;;;25.10;99.90;;;;;;5095705;28;20187;-81
2023/05/21 08:45:43;;;;;;;8.63;7.73;;;25.20;99.90;;;;;;5113876;28;20485;-81
2023/05/21 08:48:15;;;;;;;10.27;9.03;;;25.20;99.90;;;;;;5095632;28;20412;-81
2023/05/21 08:50:42;;;;;;;10.70;7.73;;;25.30;99.90;;;;;;5117685;28;20424;-81
2023/05/21 08:53:08;;;;;;;11.03;8.87;;;25.30;99.90;;;;;;5114497;28;20435;-81
2023/05/21 08:55:35;;;;;;;8.77;7.93;;;25.40;99.90;;;;;;5116680;28;20507;-86
2023/05/21 08:58:03;;;;;;;10.33;8.27;;;25.40;99.90;;;;;;5098417;28;20415;-80
2023/05/21 09:00:29;;;;;;;9.07;8.27;;;25.50;99.90;;;;;;5099183;28;20519;-86
2023/05/21 09:02:55;;;;;;;9.37;8.10;;;25.50;99.90;;;;;;5099413;28;20999;-81
2023/05/21 09:05:22;;;;;;;8.90;8.00;;;25.60;99.90;;;;;;5099366;28;20691;-81
2023/05/21 09:07:59;;;;;;;9.53;8.50;;;25.70;99.90;;;;;;5099543;28;20422;-85
2023/05/21 09:10:33;;;;;;;8.33;7.53;;;25.80;99.90;;;;;;5099198;28;20776;-81
2023/05/21 09:12:59;;;;;;;8.00;7.30;;;25.80;99.90;;;;;;5117513;28;20404;-80
2023/05/21 09:15:25;;;;;;;8.77;7.97;;;25.90;99.90;;;;;;5115554;28;20470;-81
2023/05/21 09:17:51;;;;;;;9.10;8.17;;;25.90;99.90;;;;;;5096616;28;20419;-80
2023/05/21 09:20:22;;;;;;;8.57;7.77;;;26.00;99.90;;;;;;5096778;28;20443;-82
2023/05/21 09:22:50;;;;;;;9.27;8.33;;;26.10;99.90;;;;;;5097116;28;20270;-85
2023/05/21 09:25:23;;;;;;;8.53;7.73;;;26.10;99.90;;;;;;5115036;28;20440;-86
2023/05/21 09:27:50;;;;;;;9.50;8.13;;;26.20;99.90;;;;;;5115569;28;20408;-80
2023/05/21 09:30:16;;;;;;;9.10;8.30;;;26.20;99.90;;;;;;5097651;28;20456;-85
2023/05/21 09:32:43;;;;;;;9.73;8.83;;;26.30;99.90;;;;;;5098799;28;20420;-80
2023/05/21 09:35:11;;;;;;;9.77;8.80;;;26.40;99.90;;;;;;5117014;28;20535;-81
2023/05/21 09:37:42;;;;;;;9.40;8.23;;;26.40;99.90;;;;;;5117537;28;20408;-81
2023/05/21 09:40:19;;;;;;;9.93;8.03;;;26.40;99.90;;;;;;5116695;28;20989;-81
2023/05/21 09:42:47;;;;;;;9.10;8.20;;;26.40;99.90;;;;;;5098702;28;20361;-86
2023/05/21 09:45:20;;;;;;;9.80;8.80;;;26.40;99.90;;;;;;5116803;28;21030;-85
2023/05/21 09:47:47;;;;;;;9.30;8.40;;;26.40;99.90;;;;;;5117427;28;20468;-81
2023/05/21 09:50:23;;;;;;;8.37;7.53;;;26.30;99.90;;;;;;5116715;28;20989;-85
2023/05/21 09:52:51;;;;;;;10.57;8.20;;;26.40;99.90;;;;;;5115429;28;20419;-86
2023/05/21 09:55:20;;;;;;;8.33;7.63;;;26.40;99.90;;;;;;5116624;28;20845;-85
2023/05/21 09:57:47;;;;;;;9.43;8.53;;;26.40;99.90;;;;;;5117160;28;20500;-81
2023/05/21 10:00:20;;;;;;;9.43;8.50;;;26.40;99.90;;;;;;5098059;28;20436;-85
2023/05/21 10:02:47;;;;;;;7.90;7.13;;;26.50;99.90;;;;;;5098546;28;21003;-81
2023/05/21 10:05:14;;;;;;;9.77;8.10;;;26.50;99.90;;;;;;5098153;28;20986;-84
2023/05/21 10:07:52;;;;;;;9.80;7.97;;;26.50;99.90;;;;;;5098270;28;20420;-80
2023/05/21 10:10:22;;;;;;;9.53;7.47;;;26.60;99.90;;;;;;5116393;28;20943;-81
2023/05/21 10:12:54;;;;;;;8.27;7.57;;;26.70;99.90;;;;;;5097975;28;20612;-80
2023/05/21 10:15:23;;;;;;;9.07;8.17;;;26.60;99.90;;;;;;5116013;28;20484;-86
2023/05/21 10:17:50;;;;;;;9.10;7.70;;;26.70;99.90;;;;;;5098179;28;20459;-80
2023/05/21 10:20:16;;;;;;;8.67;7.77;;;26.70;99.90;;;;;;5116139;28;20419;-86
2023/05/21 10:22:43;;;;;;;9.30;8.40;;;26.70;99.90;;;;;;5098159;28;20427;-81
2023/05/21 10:25:11;;;;;;;8.97;8.10;;;26.70;99.90;;;;;;5097722;28;20428;-81
2023/05/21 10:27:38;;;;;;;10.00;9.00;;;26.70;99.90;;;;;;5097976;28;20416;-85
2023/05/21 10:30:07;;;;;;;10.40;8.20;;;26.80;99.90;;;;;;5097584;28;20436;-81
2023/05/21 10:32:33;;;;;;;8.47;7.67;;;26.80;99.90;;;;;;5097929;28;20420;-85
2023/05/21 10:35:01;;;;;;;10.80;9.43;;;26.90;99.90;;;;;;5097480;28;20435;-85
2023/05/21 10:37:27;;;;;;;8.53;7.83;;;27.00;99.90;;;;;;5097674;28;21012;-81
2023/05/21 10:39:54;;;;;;;8.67;7.90;;;27.00;99.90;;;;;;5115761;28;20464;-81
2023/05/21 10:42:32;;;;;;;9.80;8.70;;;27.00;99.90;;;;;;5097342;28;20474;-85
2023/05/21 10:45:13;;;;;;;10.50;9.20;;;27.10;99.90;;;;;;5097408;28;20475;-85
2023/05/21 10:47:51;;;;;;;8.57;7.80;;;27.10;99.90;;;;;;5116305;28;20416;-86
2023/05/21 10:50:50;;;;;;;8.43;7.73;;;27.10;99.90;;;;;;5115576;28;20436;-81
2023/05/21 10:53:36;;;;;;;10.20;8.60;;;27.10;99.90;;;;;;5097239;28;20428;-81
2023/05/21 10:56:24;;;;;;;9.70;7.90;;;27.10;99.90;;;;;;5097225;28;20486;-85
2023/05/21 10:58:58;;;;;;;10.93;8.00;;;27.10;99.90;;;;;;5115494;28;20404;-85
2023/05/21 11:01:32;;;;;;;8.93;8.13;;;27.00;99.90;;;;;;5115588;28;20955;-85
2023/05/21 11:03:58;;;;;;;9.37;8.40;;;27.00;99.90;;;;;;5097149;28;20412;-80
2023/05/21 11:06:25;;;;;;;8.20;7.50;;;27.10;99.90;;;;;;5115417;28;20489;-80
2023/05/21 11:08:54;;;;;;;9.27;8.50;;;27.10;99.90;;;;;;5115246;28;20909;-81
2023/05/21 11:11:41;;;;;;;8.80;8.00;;;27.10;99.90;;;;;;5096170;28;20450;-85
2023/05/21 11:14:30;;;;;;;9.17;8.37;;;27.20;99.90;;;;;;5096909;28;20470;-86
2023/05/21 11:16:56;;;;;;;10.50;8.33;;;27.30;99.90;;;;;;5096678;28;20996;-81
2023/05/21 11:19:36;;;;;;;9.37;8.47;;;27.30;99.90;;;;;;5115139;28;20454;-85
2023/05/21 11:22:06;;;;;;;9.57;8.67;;;27.30;99.90;;;;;;5096732;28;20514;-81
2023/05/21 11:24:35;;;;;;;9.77;7.63;;;27.30;99.90;;;;;;5096762;28;20401;-85
2023/05/21 11:27:03;;;;;;;9.73;8.50;;;27.40;99.90;;;;;;5096836;28;20420;-85
2023/05/21 11:29:40;;;;;;;9.60;8.70;;;27.40;99.90;;;;;;5096523;28;20428;-85
2023/05/21 11:32:08;;;;;;;9.43;8.50;;;27.40;99.90;;;;;;5115188;28;20408;-85
2023/05/21 11:34:40;;;;;;;9.43;8.50;;;27.50;99.90;;;;;;5114687;28;20770;-86
2023/05/21 11:37:39;;;;;;;9.90;8.90;;;27.60;99.30;;;;;;5096415;28;20523;-84
2023/05/21 11:40:24;;;;;;;8.00;7.27;;;27.50;99.70;;;;;;5114069;28;20447;-85
2023/05/21 11:42:52;;;;;;;7.90;7.20;;;27.50;99.40;;;;;;5096434;28;20436;-81
2023/05/21 11:45:20;;;;;;;9.70;8.73;;;27.50;99.60;;;;;;5114515;28;20850;-80
2023/05/21 11:47:48;;;;;;;9.83;8.53;;;27.50;99.40;;;;;;5114437;28;20408;-81
2023/05/21 11:50:14;;;;;;;9.47;8.50;;;27.50;99.30;;;;;;5096225;28;20786;-81
2023/05/21 11:52:41;;;;;;;10.20;9.30;;;27.50;99.20;;;;;;5096448;28;20522;-86
2023/05/21 11:55:08;;;;;;;12.57;8.27;;;27.50;99.00;;;;;;5096197;28;20953;-86
2023/05/21 11:57:33;;;;;;;8.93;8.03;;;27.50;97.90;;;;;;5114114;28;20927;-86
2023/05/21 12:00:01;;;;;;;9.87;8.00;;;27.50;97.10;;;;;;5093940;28;20432;-86
2023/05/21 12:02:31;;;;;;;9.63;8.77;;;27.50;98.40;;;;;;5113031;28;20711;-86
2023/05/21 12:04:58;;;;;;;9.40;7.67;;;27.60;97.80;;;;;;5094078;28;20432;-81
2023/05/21 12:07:27;;;;;;;8.83;8.10;;;27.50;98.50;;;;;;5094397;28;20423;-86
2023/05/21 12:09:53;;;;;;;9.43;8.27;;;27.50;98.40;;;;;;5094224;28;20809;-81
2023/05/21 12:12:25;;;;;;;8.33;7.63;;;27.50;98.50;;;;;;5112950;28;20420;-81
2023/05/21 12:14:53;;;;;;;8.93;8.03;;;27.50;98.30;;;;;;5094293;28;20404;-81
2023/05/21 12:17:23;;;;;;;8.53;7.73;;;27.50;98.30;;;;;;5112649;28;20952;-81
2023/05/21 12:19:54;;;;;;;8.87;8.07;;;27.60;98.00;;;;;;5093607;28;20416;-85
2023/05/21 12:22:20;;;;;;;9.00;8.10;;;27.60;96.40;;;;;;5093997;28;20475;-85
2023/05/21 12:24:47;;;;;;;9.30;8.30;;;27.70;96.70;;;;;;5118591;28;20404;-85
2023/05/21 12:27:15;;;;;;;8.87;8.03;;;27.70;97.40;;;;;;5118559;28;20407;-81
2023/05/21 12:29:45;;;;;;;8.50;7.70;;;27.60;95.70;;;;;;5118257;28;20416;-81
2023/05/21 12:32:12;;;;;;;8.20;7.50;;;27.80;96.20;;;;;;5119206;28;20420;-84
2023/05/21 12:34:53;;;;;;;8.60;7.40;;;27.80;94.90;;;;;;5102254;28;20411;-85
2023/05/21 12:37:32;;;;;;;9.00;7.70;;;27.80;95.60;;;;;;5120183;28;20415;-85